Time;durP1;ratioP1;P1;durP2;ratioP2;P2;SDS_P1;SDS_P2;PMS_P1;PMS_P2;Temp;Humidity;BMP_temperature;BMP_pressure;BME280_temperature;BME280_humidity;BME280_pressure;Samples;Min_cycle;Max_cycle;Signal;HPM_P1;HPM_P2
2022/05/16 00:01:56;;;;;;;6.93;1.83;;;;;;;;;;5041784;28;20045;-68
2022/05/16 00:04:23;;;;;;;6.35;1.95;;;;;;;;;;5055741;28;20037;-69
2022/05/16 00:06:49;;;;;;;6.57;1.70;;;;;;;;;;5061874;28;20094;-68
2022/05/16 00:09:15;;;;;;;7.10;2.22;;;;;;;;;;5062051;28;20072;-69
2022/05/16 00:11:41;;;;;;;6.25;2.28;;;;;;;;;;5061800;28;20049;-68
2022/05/16 00:14:07;;;;;;;9.38;2.35;;;;;;;;;;5059027;28;20041;-68
2022/05/16 00:16:34;;;;;;;6.38;2.10;;;;;;;;;;5061417;28;20094;-68
2022/05/16 00:19:00;;;;;;;7.22;2.05;;;;;;;;;;5061452;28;20478;-69
2022/05/16 00:21:26;;;;;;;6.78;2.13;;;;;;;;;;5059911;28;20127;-68
2022/05/16 00:23:52;;;;;;;5.70;1.95;;;;;;;;;;5060942;28;20068;-68
2022/05/16 00:26:18;;;;;;;5.63;2.13;;;;;;;;;;5063246;28;20397;-68
2022/05/16 00:28:44;;;;;;;5.65;1.80;;;;;;;;;;5058312;28;20134;-68
2022/05/16 00:31:10;;;;;;;7.18;1.90;;;;;;;;;;5045903;28;20470;-68
2022/05/16 00:33:36;;;;;;;4.70;1.55;;;;;;;;;;5044322;28;20557;-68
2022/05/16 00:36:03;;;;;;;8.40;1.90;;;;;;;;;;5028956;28;20057;-68
2022/05/16 00:38:29;;;;;;;5.13;1.95;;;;;;;;;;5045363;28;20217;-68
2022/05/16 00:40:56;;;;;;;6.57;2.40;;;;;;;;;;5028880;28;20037;-68
2022/05/16 00:43:24;;;;;;;5.13;1.77;;;;;;;;;;5045399;28;20033;-69
2022/05/16 00:45:50;;;;;;;5.82;2.10;;;;;;;;;;5045108;28;20045;-69
2022/05/16 00:48:16;;;;;;;6.88;1.80;;;;;;;;;;5046652;28;20076;-68
2022/05/16 00:50:42;;;;;;;5.63;1.80;;;;;;;;;;5045316;28;20432;-69
2022/05/16 00:53:10;;;;;;;5.30;1.80;;;;;;;;;;5045320;28;20045;-68
2022/05/16 00:55:37;;;;;;;6.53;1.88;;;;;;;;;;5045147;28;20112;-68
2022/05/16 00:58:14;;;;;;;6.07;1.75;;;;;;;;;;5044800;28;20091;-68
2022/05/16 01:00:42;;;;;;;5.30;1.75;;;;;;;;;;5045319;28;20776;-68
2022/05/16 01:06:03;;;;;;;5.07;1.80;;;;;;;;;;5062036;28;20044;-68
2022/05/16 01:08:30;;;;;;;5.32;1.80;;;;;;;;;;5044920;28;20056;-69
2022/05/16 01:10:58;;;;;;;5.55;1.95;;;;;;;;;;5044926;28;20124;-68
2022/05/16 01:13:25;;;;;;;5.80;2.03;;;;;;;;;;5028278;28;20105;-68
2022/05/16 01:15:51;;;;;;;4.40;1.70;;;;;;;;;;5047653;28;20123;-68
2022/05/16 01:18:22;;;;;;;5.47;2.08;;;;;;;;;;5084844;28;20044;-69
2022/05/16 01:20:56;;;;;;;4.90;1.75;;;;;;;;;;5085332;28;20122;-68
2022/05/16 01:23:24;;;;;;;6.05;2.10;;;;;;;;;;5086325;28;20488;-68
2022/05/16 01:25:51;;;;;;;4.57;1.70;;;;;;;;;;5074263;28;20043;-68
2022/05/16 01:28:18;;;;;;;7.22;2.08;;;;;;;;;;5065268;28;20501;-68
2022/05/16 01:30:48;;;;;;;4.53;1.50;;;;;;;;;;5048070;28;20101;-68
2022/05/16 01:33:14;;;;;;;5.40;1.75;;;;;;;;;;5047121;28;20490;-69
2022/05/16 01:35:40;;;;;;;5.57;2.22;;;;;;;;;;5064065;28;20056;-69
2022/05/16 01:38:18;;;;;;;4.90;1.88;;;;;;;;;;5045785;28;20051;-68
2022/05/16 01:41:05;;;;;;;3.97;1.55;;;;;;;;;;5053887;28;20076;-68
2022/05/16 01:43:36;;;;;;;5.63;2.10;;;;;;;;;;5043878;28;20041;-68
2022/05/16 01:46:02;;;;;;;4.88;1.60;;;;;;;;;;5044672;28;20041;-68
2022/05/16 01:48:30;;;;;;;5.25;1.63;;;;;;;;;;5042882;28;20045;-68
2022/05/16 01:51:04;;;;;;;4.13;1.45;;;;;;;;;;5046462;28;20048;-68
2022/05/16 01:53:31;;;;;;;4.93;1.60;;;;;;;;;;5060564;28;20040;-68
2022/05/16 01:55:57;;;;;;;5.20;1.58;;;;;;;;;;5064464;28;20124;-68
2022/05/16 01:58:24;;;;;;;4.68;1.50;;;;;;;;;;5063805;28;20040;-68
2022/05/16 02:00:50;;;;;;;4.45;1.60;;;;;;;;;;5047662;28;20040;-69
2022/05/16 02:03:16;;;;;;;4.65;1.52;;;;;;;;;;5064411;28;20048;-68
2022/05/16 02:05:43;;;;;;;6.13;1.90;;;;;;;;;;5064115;28;20701;-68
2022/05/16 02:08:09;;;;;;;3.60;1.50;;;;;;;;;;5064169;28;20481;-68
2022/05/16 02:10:35;;;;;;;5.63;1.73;;;;;;;;;;5056559;28;20727;-69
2022/05/16 02:13:03;;;;;;;4.05;1.50;;;;;;;;;;5062700;28;20049;-68
2022/05/16 02:15:30;;;;;;;6.25;1.63;;;;;;;;;;5064803;28;20051;-68
2022/05/16 02:17:57;;;;;;;4.78;1.63;;;;;;;;;;5044542;28;20060;-68
2022/05/16 02:20:23;;;;;;;4.43;1.52;;;;;;;;;;5063538;28;20124;-68
2022/05/16 02:25:36;;;;;;;4.85;1.60;;;;;;;;;;5063728;28;20068;-68
2022/05/16 02:28:03;;;;;;;3.45;1.27;;;;;;;;;;5064796;28;20052;-68
2022/05/16 02:30:29;;;;;;;5.03;1.50;;;;;;;;;;5063573;28;20123;-69
2022/05/16 02:32:56;;;;;;;4.65;1.50;;;;;;;;;;5063189;28;20048;-69
2022/05/16 02:35:22;;;;;;;4.82;1.70;;;;;;;;;;5062945;28;20056;-69
2022/05/16 02:37:48;;;;;;;4.55;1.70;;;;;;;;;;5063289;28;20123;-68
2022/05/16 02:40:14;;;;;;;5.68;1.85;;;;;;;;;;5063297;28;20037;-69
2022/05/16 02:42:40;;;;;;;5.28;1.50;;;;;;;;;;5062758;28;20058;-68
2022/05/16 02:45:07;;;;;;;4.30;1.45;;;;;;;;;;5062788;28;20056;-68
2022/05/16 02:47:33;;;;;;;4.05;1.35;;;;;;;;;;5062176;28;20509;-68
2022/05/16 02:49:59;;;;;;;4.45;1.70;;;;;;;;;;5062719;28;20044;-69
2022/05/16 02:52:25;;;;;;;4.05;1.45;;;;;;;;;;5046461;28;20638;-69
2022/05/16 02:54:52;;;;;;;3.92;1.40;;;;;;;;;;5044305;28;20120;-68
2022/05/16 02:57:18;;;;;;;3.45;1.40;;;;;;;;;;5036216;28;20425;-68
2022/05/16 02:59:44;;;;;;;4.72;1.65;;;;;;;;;;5042554;28;20033;-68
2022/05/16 03:02:11;;;;;;;3.35;1.20;;;;;;;;;;5043007;28;20043;-68
2022/05/16 03:04:37;;;;;;;5.10;1.75;;;;;;;;;;5076707;28;20132;-68
2022/05/16 03:07:04;;;;;;;4.70;1.55;;;;;;;;;;5065909;28;20044;-69
2022/05/16 03:09:30;;;;;;;4.22;1.50;;;;;;;;;;5083256;28;20048;-68
2022/05/16 03:11:56;;;;;;;3.55;1.20;;;;;;;;;;5082853;28;20036;-69
2022/05/16 03:14:22;;;;;;;4.93;1.63;;;;;;;;;;5082601;28;20044;-69
2022/05/16 03:16:48;;;;;;;4.90;1.45;;;;;;;;;;5084079;28;20044;-69
2022/05/16 03:19:14;;;;;;;4.18;1.35;;;;;;;;;;5082624;28;20036;-69
2022/05/16 03:21:41;;;;;;;5.72;1.58;;;;;;;;;;5083040;28;20044;-69
2022/05/16 03:24:11;;;;;;;3.95;1.35;;;;;;;;;;5082785;28;20044;-68
2022/05/16 03:26:38;;;;;;;3.72;1.50;;;;;;;;;;5082744;28;20094;-69
2022/05/16 03:29:11;;;;;;;4.50;1.33;;;;;;;;;;5065564;28;20044;-68
2022/05/16 03:31:37;;;;;;;4.25;1.38;;;;;;;;;;5082501;28;20051;-68
2022/05/16 03:34:03;;;;;;;4.03;1.45;;;;;;;;;;5068777;28;20048;-69
2022/05/16 03:36:29;;;;;;;5.38;1.30;;;;;;;;;;5054131;28;20086;-69
2022/05/16 03:41:41;;;;;;;4.43;1.70;;;;;;;;;;5061930;28;20072;-68
2022/05/16 03:44:07;;;;;;;4.03;1.40;;;;;;;;;;5061928;28;20041;-69
2022/05/16 03:46:33;;;;;;;5.57;1.33;;;;;;;;;;5044861;28;20047;-69
2022/05/16 03:49:00;;;;;;;5.30;1.63;;;;;;;;;;5045173;28;20056;-70
2022/05/16 03:51:26;;;;;;;4.28;1.30;;;;;;;;;;5061852;28;20055;-68
2022/05/16 03:53:52;;;;;;;4.20;1.55;;;;;;;;;;5061654;28;20036;-69
2022/05/16 03:56:19;;;;;;;4.53;1.40;;;;;;;;;;5062154;28;20071;-68
2022/05/16 03:58:45;;;;;;;4.82;1.45;;;;;;;;;;5061288;28;20032;-68
2022/05/16 04:01:11;;;;;;;4.97;1.60;;;;;;;;;;5063220;28;20036;-68
2022/05/16 04:03:38;;;;;;;3.35;1.27;;;;;;;;;;5044879;28;20101;-68
2022/05/16 04:06:04;;;;;;;3.83;1.55;;;;;;;;;;5058260;28;20033;-69
2022/05/16 04:08:31;;;;;;;4.95;1.40;;;;;;;;;;5051162;28;20052;-69
2022/05/16 04:10:57;;;;;;;4.20;1.50;;;;;;;;;;5041802;28;20128;-69
2022/05/16 04:13:24;;;;;;;6.03;1.63;;;;;;;;;;5041462;28;20045;-69
2022/05/16 04:15:50;;;;;;;4.50;1.70;;;;;;;;;;5046812;28;20053;-69
2022/05/16 04:18:16;;;;;;;5.22;1.50;;;;;;;;;;5052545;28;20283;-69
2022/05/16 04:20:42;;;;;;;3.92;1.40;;;;;;;;;;5041606;28;20124;-69
2022/05/16 04:23:09;;;;;;;4.28;1.38;;;;;;;;;;5041947;28;20397;-68
2022/05/16 04:25:37;;;;;;;4.85;1.50;;;;;;;;;;5041530;28;20029;-69
2022/05/16 04:28:04;;;;;;;4.55;1.48;;;;;;;;;;5041871;28;20059;-69
2022/05/16 04:30:30;;;;;;;3.13;1.25;;;;;;;;;;5042839;28;20032;-68
2022/05/16 04:32:56;;;;;;;3.72;1.30;;;;;;;;;;5024784;28;20751;-69
2022/05/16 04:35:22;;;;;;;4.68;1.17;;;;;;;;;;5025448;28;20060;-68
2022/05/16 04:37:48;;;;;;;3.97;1.25;;;;;;;;;;5041747;28;20124;-68
2022/05/16 04:40:14;;;;;;;4.63;1.50;;;;;;;;;;5042224;28;20141;-68
2022/05/16 04:42:42;;;;;;;3.03;1.15;;;;;;;;;;5041855;28;20044;-68
2022/05/16 04:45:13;;;;;;;4.32;1.25;;;;;;;;;;5042824;28;20490;-68
2022/05/16 04:47:39;;;;;;;5.40;1.35;;;;;;;;;;5058836;28;20068;-69
2022/05/16 04:50:05;;;;;;;3.70;1.35;;;;;;;;;;5061567;28;20052;-68
2022/05/16 04:52:32;;;;;;;3.55;1.17;;;;;;;;;;5062516;28;20083;-68
2022/05/16 04:54:59;;;;;;;4.57;1.40;;;;;;;;;;5061839;28;20064;-68
2022/05/16 04:57:25;;;;;;;2.47;1.00;;;;;;;;;;5044923;28;20055;-68
2022/05/16 04:59:51;;;;;;;3.92;1.30;;;;;;;;;;5061700;28;20111;-68
2022/05/16 05:02:18;;;;;;;3.70;1.30;;;;;;;;;;5079285;28;20036;-69
2022/05/16 05:04:44;;;;;;;3.63;1.20;;;;;;;;;;5081675;28;20120;-68
2022/05/16 05:07:12;;;;;;;3.60;1.15;;;;;;;;;;5064535;28;20119;-68
2022/05/16 05:15:13;;;;;;;3.97;1.40;;;;;;;;;;5064797;28;20727;-68
2022/05/16 05:17:40;;;;;;;4.15;1.50;;;;;;;;;;5064681;28;20049;-69
2022/05/16 05:20:12;;;;;;;4.13;1.35;;;;;;;;;;5051434;28;20509;-69
2022/05/16 05:22:39;;;;;;;3.97;1.48;;;;;;;;;;5047914;28;20735;-69
2022/05/16 05:25:05;;;;;;;4.28;1.27;;;;;;;;;;5064534;28;20047;-69
2022/05/16 05:27:32;;;;;;;4.78;1.45;;;;;;;;;;5064494;28;20044;-69
2022/05/16 05:29:58;;;;;;;4.65;1.33;;;;;;;;;;5064672;28;20502;-69
2022/05/16 05:32:24;;;;;;;4.13;1.50;;;;;;;;;;5064465;28;20124;-69
2022/05/16 05:34:50;;;;;;;5.82;1.55;;;;;;;;;;5047377;28;20561;-69
2022/05/16 05:37:16;;;;;;;4.10;1.30;;;;;;;;;;5046649;28;20123;-69
2022/05/16 05:39:42;;;;;;;5.43;1.52;;;;;;;;;;5064386;28;20626;-69
2022/05/16 05:42:08;;;;;;;4.57;1.40;;;;;;;;;;5064590;28;20548;-68
2022/05/16 05:44:34;;;;;;;4.00;1.70;;;;;;;;;;5064522;28;20041;-68
2022/05/16 05:47:01;;;;;;;5.82;1.90;;;;;;;;;;5061991;28;20117;-68
2022/05/16 05:49:27;;;;;;;5.25;1.60;;;;;;;;;;5048534;28;20049;-68
2022/05/16 05:51:53;;;;;;;4.90;1.88;;;;;;;;;;5044404;28;20594;-68
2022/05/16 05:54:19;;;;;;;6.38;1.80;;;;;;;;;;5063362;28;20501;-68
2022/05/16 05:56:45;;;;;;;5.07;1.60;;;;;;;;;;5063601;28;20041;-68
2022/05/16 05:59:11;;;;;;;4.85;1.65;;;;;;;;;;5063688;28;20051;-68
2022/05/16 06:01:37;;;;;;;4.35;1.80;;;;;;;;;;5053724;28;20049;-68
2022/05/16 06:04:03;;;;;;;5.03;2.20;;;;;;;;;;5056615;28;20044;-68
2022/05/16 06:06:29;;;;;;;8.77;1.98;;;;;;;;;;5027003;28;20045;-69
2022/05/16 06:08:55;;;;;;;7.82;2.53;;;;;;;;;;5052293;28;20051;-69
2022/05/16 06:11:27;;;;;;;6.55;2.60;;;;;;;;;;5063376;28;20134;-70
2022/05/16 06:13:53;;;;;;;7.20;2.63;;;;;;;;;;5063167;28;20047;-69
2022/05/16 06:16:19;;;;;;;8.68;2.60;;;;;;;;;;5049422;28;20044;-69
2022/05/16 06:18:45;;;;;;;8.48;2.45;;;;;;;;;;5047236;28;20070;-69
2022/05/16 06:21:11;;;;;;;5.90;2.45;;;;;;;;;;5043331;28;20045;-69
2022/05/16 06:23:37;;;;;;;7.97;2.13;;;;;;;;;;5026344;28;20041;-69
2022/05/16 06:26:03;;;;;;;4.68;1.83;;;;;;;;;;5027483;28;20037;-70
2022/05/16 06:28:32;;;;;;;5.55;2.08;;;;;;;;;;5027050;28;20041;-70
2022/05/16 06:30:58;;;;;;;6.43;2.30;;;;;;;;;;5063121;28;20049;-69
2022/05/16 06:33:29;;;;;;;4.68;2.10;;;;;;;;;;5071214;28;20063;-69
2022/05/16 06:35:55;;;;;;;8.15;2.30;;;;;;;;;;5067175;28;20040;-69
2022/05/16 06:38:23;;;;;;;7.35;2.35;;;;;;;;;;5082686;28;20692;-69
2022/05/16 06:40:49;;;;;;;6.90;2.20;;;;;;;;;;5066590;28;20052;-68
2022/05/16 06:43:16;;;;;;;6.97;2.95;;;;;;;;;;5083202;28;20067;-69
2022/05/16 06:45:42;;;;;;;5.78;2.53;;;;;;;;;;5072713;28;20582;-69
2022/05/16 06:48:08;;;;;;;7.20;2.50;;;;;;;;;;5042562;28;20497;-69
2022/05/16 06:50:35;;;;;;;6.60;2.25;;;;;;;;;;5042834;28;20090;-69
2022/05/16 06:53:03;;;;;;;6.82;2.28;;;;;;;;;;5026901;28;20128;-69
2022/05/16 06:55:29;;;;;;;6.68;2.45;;;;;;;;;;5051131;28;20518;-69
2022/05/16 06:57:55;;;;;;;7.82;2.70;;;;;;;;;;5038167;28;20043;-69
2022/05/16 07:00:21;;;;;;;5.65;2.28;;;;;;;;;;5045690;28;20036;-69
2022/05/16 07:02:47;;;;;;;7.53;2.63;;;;;;;;;;5062263;28;20048;-69
2022/05/16 07:05:13;;;;;;;6.82;2.45;;;;;;;;;;5061888;28;20086;-69
2022/05/16 07:07:39;;;;;;;6.82;2.25;;;;;;;;;;5062302;28;20770;-68
2022/05/16 07:10:06;;;;;;;6.30;2.20;;;;;;;;;;5062303;28;20123;-69
2022/05/16 07:12:32;;;;;;;7.22;2.50;;;;;;;;;;5046004;28;20040;-69
2022/05/16 07:14:58;;;;;;;6.47;2.30;;;;;;;;;;5062301;28;20541;-68
2022/05/16 07:17:24;;;;;;;6.28;2.35;;;;;;;;;;5063828;28;20048;-69
2022/05/16 07:19:50;;;;;;;6.00;2.30;;;;;;;;;;5062913;28;20040;-69
2022/05/16 07:22:22;;;;;;;5.47;2.10;;;;;;;;;;5062311;28;20505;-69
2022/05/16 07:24:48;;;;;;;5.97;2.13;;;;;;;;;;5062937;28;20044;-69
2022/05/16 07:29:59;;;;;;;5.80;2.28;;;;;;;;;;5062112;28;20056;-69
2022/05/16 07:32:33;;;;;;;5.68;2.10;;;;;;;;;;5062368;28;20068;-69
2022/05/16 07:35:04;;;;;;;7.18;2.40;;;;;;;;;;5061736;28;20052;-69
2022/05/16 07:37:31;;;;;;;5.75;2.25;;;;;;;;;;5045401;28;20060;-69
2022/05/16 07:39:58;;;;;;;5.72;1.95;;;;;;;;;;5063370;28;20533;-69
2022/05/16 07:42:24;;;;;;;5.40;1.95;;;;;;;;;;5045443;28;20123;-70
2022/05/16 07:44:50;;;;;;;6.53;2.47;;;;;;;;;;5062218;28;20067;-69
2022/05/16 07:47:16;;;;;;;6.57;2.25;;;;;;;;;;5055584;28;20074;-69
2022/05/16 07:49:42;;;;;;;5.57;1.90;;;;;;;;;;5061871;28;20101;-69
2022/05/16 07:52:09;;;;;;;5.85;2.20;;;;;;;;;;5061894;28;20600;-69
2022/05/16 07:54:35;;;;;;;7.90;2.10;;;;;;;;;;5062026;28;20037;-69
2022/05/16 07:57:03;;;;;;;4.85;1.90;;;;;;;;;;5061886;28;20040;-69
2022/05/16 07:59:28;;;;;;;7.57;2.33;;;;;;;;;;5061901;28;20124;-69
2022/05/16 08:01:54;;;;;;;8.20;2.25;;;;;;;;;;5055167;28;20579;-69
2022/05/16 08:04:21;;;;;;;5.75;2.05;;;;;;;;;;5060446;28;20044;-69
2022/05/16 08:06:48;;;;;;;5.43;2.03;;;;;;;;;;5045079;28;20127;-69
2022/05/16 08:11:58;;;;;;;5.88;1.92;;;;;;;;;;5081746;28;20518;-69
2022/05/16 08:14:24;;;;;;;5.68;2.28;;;;;;;;;;5082777;28;20047;-69
2022/05/16 08:16:50;;;;;;;7.47;2.22;;;;;;;;;;5081378;28;20043;-69
2022/05/16 08:19:16;;;;;;;8.23;2.20;;;;;;;;;;5081415;28;20075;-69
2022/05/16 08:21:43;;;;;;;6.70;2.20;;;;;;;;;;5064772;28;20111;-69
2022/05/16 08:24:11;;;;;;;6.07;2.20;;;;;;;;;;5081339;28;20674;-69
2022/05/16 08:26:37;;;;;;;7.78;2.55;;;;;;;;;;5081907;28;20123;-70
2022/05/16 08:29:04;;;;;;;9.00;2.00;;;;;;;;;;5081295;28;20050;-69
2022/05/16 08:31:30;;;;;;;6.38;2.47;;;;;;;;;;5081761;28;20189;-70
2022/05/16 08:33:57;;;;;;;6.60;1.80;;;;;;;;;;5080866;28;20062;-69
2022/05/16 08:41:55;;;;;;;7.45;2.10;;;;;;;;;;5061461;28;20044;-70
2022/05/16 08:44:24;;;;;;;7.25;2.60;;;;;;;;;;5061253;28;20068;-69
2022/05/16 08:46:50;;;;;;;6.35;1.98;;;;;;;;;;5063537;28;20551;-69
2022/05/16 08:49:29;;;;;;;7.20;2.60;;;;;;;;;;5065156;28;20040;-69
2022/05/16 08:51:59;;;;;;;6.90;2.15;;;;;;;;;;5065547;28;20045;-69
2022/05/16 08:54:25;;;;;;;7.88;2.42;;;;;;;;;;5065394;28;20498;-69
2022/05/16 08:56:51;;;;;;;7.00;2.45;;;;;;;;;;5065205;28;20554;-69
2022/05/16 08:59:21;;;;;;;7.80;2.17;;;;;;;;;;5064807;28;20074;-69
2022/05/16 09:01:56;;;;;;;7.75;2.20;;;;;;;;;;5065201;28;20059;-69
2022/05/16 09:04:25;;;;;;;5.97;2.05;;;;;;;;;;5064649;28;20036;-69
2022/05/16 09:06:51;;;;;;;5.18;2.35;;;;;;;;;;5047517;28;20047;-69
2022/05/16 09:09:19;;;;;;;6.53;2.28;;;;;;;;;;5063813;28;20052;-70
2022/05/16 09:12:04;;;;;;;6.50;2.30;;;;;;;;;;5064160;28;20520;-70
2022/05/16 09:14:41;;;;;;;6.28;2.10;;;;;;;;;;5047169;28;20106;-70
2022/05/16 09:17:13;;;;;;;8.35;2.17;;;;;;;;;;5064536;28;20523;-69
2022/05/16 09:19:54;;;;;;;6.47;2.17;;;;;;;;;;5064661;28;20045;-70
2022/05/16 09:22:24;;;;;;;6.28;2.25;;;;;;;;;;5062979;28;20081;-69
2022/05/16 09:24:52;;;;;;;4.60;1.80;;;;;;;;;;5077065;28;20041;-70
2022/05/16 09:30:06;;;;;;;7.88;2.58;;;;;;;;;;5040130;28;20131;-70
2022/05/16 09:32:33;;;;;;;5.65;2.10;;;;;;;;;;5042767;28;20544;-70
2022/05/16 09:35:00;;;;;;;7.10;2.22;;;;;;;;;;5042503;28;20063;-70
2022/05/16 09:37:26;;;;;;;7.35;2.17;;;;;;;;;;5025522;28;20048;-70
2022/05/16 09:39:53;;;;;;;7.65;2.40;;;;;;;;;;5043776;28;20694;-70
2022/05/16 09:42:27;;;;;;;6.50;2.55;;;;;;;;;;5044071;28;20045;-70
2022/05/16 09:45:02;;;;;;;5.00;1.85;;;;;;;;;;5043443;28;20041;-69
2022/05/16 09:47:28;;;;;;;6.15;2.17;;;;;;;;;;5026425;28;20082;-70
2022/05/16 09:50:03;;;;;;;5.70;2.13;;;;;;;;;;5043849;28;20048;-69
2022/05/16 09:52:34;;;;;;;6.57;2.92;;;;;;;;;;5044816;28;20456;-69
2022/05/16 09:55:03;;;;;;;7.07;2.67;;;;;;;;;;5044056;28;20036;-69
2022/05/16 09:57:32;;;;;;;8.23;2.70;;;;;;;;;;5054585;28;20048;-70
2022/05/16 10:00:15;;;;;;;7.28;3.00;;;;;;;;;;5063955;28;20106;-70
2022/05/16 10:02:42;;;;;;;7.78;3.00;;;;;;;;;;5047420;28;20090;-70
2022/05/16 10:05:11;;;;;;;6.38;2.63;;;;;;;;;;5065010;28;20128;-69
2022/05/16 10:07:37;;;;;;;5.30;2.28;;;;;;;;;;5063888;28;20080;-69
2022/05/16 10:10:03;;;;;;;6.35;2.80;;;;;;;;;;5064171;28;20075;-69
2022/05/16 10:12:29;;;;;;;8.73;2.70;;;;;;;;;;5064059;28;20071;-69
2022/05/16 10:14:56;;;;;;;9.15;3.03;;;;;;;;;;5063356;28;20068;-70
2022/05/16 10:17:48;;;;;;;9.68;3.22;;;;;;;;;;5063757;28;20048;-70
2022/05/16 10:20:17;;;;;;;8.32;2.97;;;;;;;;;;5058803;28;20044;-69
2022/05/16 10:22:44;;;;;;;7.65;2.78;;;;;;;;;;5063786;28;20076;-69
2022/05/16 10:25:13;;;;;;;7.03;3.33;;;;;;;;;;5047293;28;20478;-70
2022/05/16 10:27:42;;;;;;;5.93;2.75;;;;;;;;;;5063561;28;20415;-69
2022/05/16 10:30:10;;;;;;;6.15;2.67;;;;;;;;;;5063831;28;20554;-70
2022/05/16 10:35:30;;;;;;;7.18;2.97;;;;;;;;;;5083837;28;20633;-70
2022/05/16 10:37:58;;;;;;;8.80;2.85;;;;;;;;;;5083741;28;20052;-69
2022/05/16 10:40:31;;;;;;;8.18;3.33;;;;;;;;;;5083640;28;20499;-69
2022/05/16 10:42:56;;;;;;;8.13;2.78;;;;;;;;;;5083438;28;20581;-70
2022/05/16 10:45:25;;;;;;;7.25;3.05;;;;;;;;;;5065849;28;20044;-69
2022/05/16 10:48:10;;;;;;;6.68;2.97;;;;;;;;;;5058255;28;20044;-70
2022/05/16 10:50:43;;;;;;;7.90;3.28;;;;;;;;;;5046074;28;20036;-70
2022/05/16 10:53:19;;;;;;;7.22;3.03;;;;;;;;;;5076811;28;20137;-70
2022/05/16 10:56:07;;;;;;;7.55;3.20;;;;;;;;;;5083313;28;20044;-69
2022/05/16 10:58:41;;;;;;;7.05;3.10;;;;;;;;;;5082606;28;20124;-69
2022/05/16 11:01:11;;;;;;;6.93;3.05;;;;;;;;;;5082640;28;20071;-70
2022/05/16 11:03:46;;;;;;;8.48;3.22;;;;;;;;;;5066058;28;20035;-70
2022/05/16 11:06:22;;;;;;;6.15;2.60;;;;;;;;;;5083456;28;20151;-70
2022/05/16 11:08:55;;;;;;;6.10;2.60;;;;;;;;;;5082837;28;20048;-69
2022/05/16 11:11:25;;;;;;;5.95;2.90;;;;;;;;;;5083131;28;20048;-70
2022/05/16 11:14:07;;;;;;;6.60;3.00;;;;;;;;;;5083044;28;20665;-70
2022/05/16 11:16:38;;;;;;;6.53;2.80;;;;;;;;;;5083042;28;20075;-70
2022/05/16 11:19:17;;;;;;;8.50;2.95;;;;;;;;;;5078470;28;20055;-70
2022/05/16 11:21:49;;;;;;;6.03;2.60;;;;;;;;;;5063005;28;20047;-69
2022/05/16 11:24:35;;;;;;;7.00;2.95;;;;;;;;;;5082689;28;20036;-70
2022/05/16 11:27:10;;;;;;;6.13;2.60;;;;;;;;;;5065092;28;20122;-70
2022/05/16 11:29:49;;;;;;;6.65;2.72;;;;;;;;;;5081899;28;20043;-69
2022/05/16 11:32:33;;;;;;;6.22;2.47;;;;;;;;;;5082166;28;20040;-70
2022/05/16 11:35:07;;;;;;;7.07;2.78;;;;;;;;;;5081125;28;20814;-69
2022/05/16 11:37:33;;;;;;;;;;;;;;;;;;5051478;28;20045;-70
2022/05/16 11:40:19;;;;;;;7.15;2.83;;;;;;;;;;5061879;28;19923;-70
2022/05/16 11:42:45;;;;;;;6.20;2.65;;;;;;;;;;5061925;28;20044;-70
2022/05/16 11:45:27;;;;;;;7.22;2.72;;;;;;;;;;5061955;28;20042;-70
2022/05/16 11:48:00;;;;;;;6.45;3.00;;;;;;;;;;5061847;28;20041;-70
2022/05/16 11:50:35;;;;;;;6.30;3.10;;;;;;;;;;5061832;28;20119;-70
2022/05/16 11:53:04;;;;;;;7.47;2.60;;;;;;;;;;5061594;28;20044;-70
2022/05/16 12:01:06;;;;;;;6.30;2.38;;;;;;;;;;5058039;28;20048;-69
2022/05/16 12:03:43;;;;;;;7.13;2.35;;;;;;;;;;5056908;28;20681;-70
2022/05/16 12:06:14;;;;;;;6.15;2.40;;;;;;;;;;5051849;28;20041;-70
2022/05/16 12:08:42;;;;;;;8.23;2.97;;;;;;;;;;5056057;28;20044;-70
2022/05/16 12:11:10;;;;;;;7.97;2.85;;;;;;;;;;5055548;28;20041;-70
2022/05/16 12:13:39;;;;;;;5.93;2.75;;;;;;;;;;5055788;28;20051;-70
2022/05/16 12:16:14;;;;;;;6.50;2.80;;;;;;;;;;5056492;28;20577;-69
2022/05/16 12:18:43;;;;;;;6.97;2.58;;;;;;;;;;5054316;28;20381;-70
2022/05/16 12:21:09;;;;;;;8.07;2.78;;;;;;;;;;5057225;28;20098;-70
2022/05/16 12:23:47;;;;;;;6.15;2.63;;;;;;;;;;5045994;28;20093;-69
2022/05/16 12:26:13;;;;;;;5.70;2.30;;;;;;;;;;5055352;28;20045;-70
2022/05/16 12:28:39;;;;;;;7.55;2.65;;;;;;;;;;5050359;28;20040;-70
2022/05/16 12:31:06;;;;;;;6.57;3.10;;;;;;;;;;5031458;28;20055;-70
2022/05/16 12:33:38;;;;;;;11.60;3.50;;;;;;;;;;5059056;28;20136;-69
2022/05/16 12:36:10;;;;;;;11.02;3.80;;;;;;;;;;5049802;28;20040;-70
2022/05/16 12:38:36;;;;;;;10.05;3.40;;;;;;;;;;5042369;28;20726;-69
2022/05/16 12:41:05;;;;;;;9.63;4.93;;;;;;;;;;5061974;28;20044;-71
2022/05/16 12:43:50;;;;;;;28.88;13.98;;;;;;;;;;5058576;28;20048;-71
2022/05/16 12:46:19;;;;;;;24.25;13.30;;;;;;;;;;5054252;28;20482;-71
2022/05/16 12:48:48;;;;;;;20.98;11.30;;;;;;;;;;5047389;28;20043;-71
2022/05/16 12:51:14;;;;;;;18.73;11.32;;;;;;;;;;5059088;28;20052;-71
2022/05/16 12:54:00;;;;;;;24.33;13.43;;;;;;;;;;5065052;28;20036;-71
2022/05/16 12:56:39;;;;;;;28.33;15.13;;;;;;;;;;5025403;28;20674;-72
2022/05/16 12:59:13;;;;;;;22.45;15.35;;;;;;;;;;5051808;28;20045;-71
2022/05/16 13:01:39;;;;;;;;;;;;;;;;;;5062739;28;20704;-71
2022/05/16 13:04:17;;;;;;;27.85;17.83;;;;;;;;;;5061139;28;19923;-71
2022/05/16 13:06:43;;;;;;;27.50;18.73;;;;;;;;;;5057762;28;20025;-71
2022/05/16 13:09:28;;;;;;;31.58;19.08;;;;;;;;;;5062799;28;20433;-70
2022/05/16 13:12:03;;;;;;;32.75;20.52;;;;;;;;;;5063880;28;20045;-71
2022/05/16 13:14:34;;;;;;;36.83;22.70;;;;;;;;;;5061057;28;20040;-70
2022/05/16 13:17:11;;;;;;;34.17;23.42;;;;;;;;;;5056324;28;20135;-71
2022/05/16 13:19:43;;;;;;;34.10;21.77;;;;;;;;;;5050002;28;20049;-70
2022/05/16 13:22:09;;;;;;;35.40;23.75;;;;;;;;;;5053083;28;20039;-71
2022/05/16 13:24:35;;;;;;;37.22;23.48;;;;;;;;;;5059817;28;20079;-71
2022/05/16 13:29:49;;;;;;;40.08;25.67;;;;;;;;;;5056240;28;20053;-71
2022/05/16 13:32:17;;;;;;;39.10;25.63;;;;;;;;;;5062916;28;20048;-71
2022/05/16 13:34:48;;;;;;;41.20;26.27;;;;;;;;;;5062202;28;20048;-71
2022/05/16 13:37:19;;;;;;;37.20;24.30;;;;;;;;;;5061940;28;20684;-71
2022/05/16 13:39:47;;;;;;;38.78;25.95;;;;;;;;;;5062720;28;20044;-71
2022/05/16 13:42:13;;;;;;;46.08;27.30;;;;;;;;;;5044221;28;20040;-71
2022/05/16 13:44:44;;;;;;;36.90;25.65;;;;;;;;;;5061811;28;20128;-71
2022/05/16 13:47:12;;;;;;;45.15;27.63;;;;;;;;;;5057347;28;20582;-71
2022/05/16 13:49:40;;;;;;;40.08;26.55;;;;;;;;;;5050608;28;20071;-71
2022/05/16 13:52:15;;;;;;;39.78;25.88;;;;;;;;;;5059357;28;20044;-71
2022/05/16 13:54:41;;;;;;;40.08;26.90;;;;;;;;;;5060214;28;20037;-71
2022/05/16 13:57:09;;;;;;;44.70;28.55;;;;;;;;;;5060140;28;20159;-71
2022/05/16 13:59:36;;;;;;;43.30;28.08;;;;;;;;;;5061027;28;20488;-71
2022/05/16 14:02:12;;;;;;;41.05;28.25;;;;;;;;;;5044863;28;20036;-71
2022/05/16 14:04:38;;;;;;;42.78;28.20;;;;;;;;;;5062633;28;20608;-71
2022/05/16 14:07:10;;;;;;;40.65;27.00;;;;;;;;;;5046838;28;20583;-71
2022/05/16 14:09:42;;;;;;;41.28;27.50;;;;;;;;;;5061431;28;20520;-71
2022/05/16 14:12:10;;;;;;;44.92;28.08;;;;;;;;;;5044808;28;20573;-71
2022/05/16 14:14:36;;;;;;;42.45;27.13;;;;;;;;;;5057625;28;20123;-70
2022/05/16 14:17:04;;;;;;;44.35;27.10;;;;;;;;;;5057300;28;20572;-71
2022/05/16 14:19:33;;;;;;;41.03;27.90;;;;;;;;;;5039573;28;20128;-70
2022/05/16 14:22:02;;;;;;;38.17;25.63;;;;;;;;;;5042598;28;20062;-71
2022/05/16 14:24:34;;;;;;;37.10;23.70;;;;;;;;;;5059424;28;20036;-71
2022/05/16 14:27:01;;;;;;;33.30;22.17;;;;;;;;;;5062074;28;20037;-71
2022/05/16 14:29:28;;;;;;;34.00;21.02;;;;;;;;;;5062266;28;20041;-71
2022/05/16 14:32:00;;;;;;;32.55;22.00;;;;;;;;;;5046218;28;20122;-71
2022/05/16 14:34:31;;;;;;;35.67;22.17;;;;;;;;;;5062763;28;20121;-71
2022/05/16 14:37:06;;;;;;;32.03;21.05;;;;;;;;;;5063115;28;20162;-69
2022/05/16 14:39:33;;;;;;;37.90;20.50;;;;;;;;;;5062535;28;20128;-70
2022/05/16 14:42:05;;;;;;;34.45;20.73;;;;;;;;;;5063014;28;20436;-69
2022/05/16 14:44:36;;;;;;;30.30;20.02;;;;;;;;;;5044243;28;20144;-70
2022/05/16 14:47:23;;;;;;;35.15;21.05;;;;;;;;;;5048117;28;20070;-70
2022/05/16 14:49:50;;;;;;;35.08;22.10;;;;;;;;;;5033521;28;20047;-70
2022/05/16 14:52:22;;;;;;;34.88;21.13;;;;;;;;;;5058660;28;20039;-70
2022/05/16 14:55:09;;;;;;;34.30;21.50;;;;;;;;;;5059955;28;20048;-70
2022/05/16 14:57:35;;;;;;;33.53;20.40;;;;;;;;;;5059125;28;20036;-70
2022/05/16 15:00:01;;;;;;;32.92;21.00;;;;;;;;;;5058411;28;20065;-70
2022/05/16 15:05:12;;;;;;;34.85;21.02;;;;;;;;;;5061304;28;20036;-70
2022/05/16 15:07:40;;;;;;;32.22;20.75;;;;;;;;;;5057852;28;20780;-70
2022/05/16 15:10:07;;;;;;;29.95;19.48;;;;;;;;;;5046857;28;20124;-70
2022/05/16 15:12:34;;;;;;;27.30;19.40;;;;;;;;;;5047816;28;20083;-70
2022/05/16 15:15:01;;;;;;;31.98;19.80;;;;;;;;;;5050480;28;20082;-71
2022/05/16 15:17:27;;;;;;;31.13;19.40;;;;;;;;;;5070159;28;20050;-70
2022/05/16 15:19:53;;;;;;;28.58;17.27;;;;;;;;;;5051832;28;20593;-69
2022/05/16 15:22:19;;;;;;;29.30;15.82;;;;;;;;;;5033618;28;20041;-71
2022/05/16 15:24:51;;;;;;;26.25;17.38;;;;;;;;;;5044882;28;20049;-69
2022/05/16 15:27:17;;;;;;;27.60;15.73;;;;;;;;;;5056618;28;20047;-69
2022/05/16 15:29:44;;;;;;;26.33;15.43;;;;;;;;;;5040742;28;20044;-69